createdAt,value
2018-07-27T00:00:14.642Z,1005.67
2018-07-27T00:01:14.738Z,1005.66
2018-07-27T00:02:14.812Z,1005.65
2018-07-27T00:03:14.746Z,1005.69
2018-07-27T00:04:14.751Z,1005.67
2018-07-27T00:05:14.748Z,1005.66
2018-07-27T00:06:14.789Z,1005.65
2018-07-27T00:07:14.813Z,1005.62
2018-07-27T00:08:14.766Z,1005.61
2018-07-27T00:09:14.791Z,1005.61
2018-07-27T00:10:14.714Z,1005.59
2018-07-27T00:11:14.782Z,1005.56
2018-07-27T00:12:14.753Z,1005.59
2018-07-27T00:13:14.689Z,1005.58
2018-07-27T00:14:14.688Z,1005.56
2018-07-27T00:15:14.729Z,1005.50
2018-07-27T00:16:14.666Z,1005.54
2018-07-27T00:17:14.729Z,1005.48
2018-07-27T00:18:14.666Z,1005.47
2018-07-27T00:19:14.726Z,1005.50
2018-07-27T00:20:14.758Z,1005.48
2018-07-27T00:21:14.692Z,1005.49
2018-07-27T00:22:14.733Z,1005.52
2018-07-27T00:23:14.805Z,1005.48
2018-07-27T00:24:14.806Z,1005.53
2018-07-27T00:25:14.804Z,1005.52
2018-07-27T00:26:14.735Z,1005.50
2018-07-27T00:27:14.692Z,1005.50
2018-07-27T00:28:14.806Z,1005.50
2018-07-27T00:29:14.737Z,1005.49
2018-07-27T00:30:14.824Z,1005.49
2018-07-27T00:31:14.744Z,1005.48
2018-07-27T00:32:14.723Z,1005.50
2018-07-27T00:33:14.736Z,1005.47
2018-07-27T00:34:14.715Z,1005.49
2018-07-27T00:35:14.716Z,1005.49
2018-07-27T00:36:14.755Z,1005.51
2018-07-27T00:37:14.765Z,1005.48
2018-07-27T00:38:14.733Z,1005.50
2018-07-27T00:39:14.734Z,1005.50
2018-07-27T00:40:14.807Z,1005.49
2018-07-27T00:41:14.722Z,1005.49
2018-07-27T00:42:14.813Z,1005.46
2018-07-27T00:43:14.810Z,1005.46
2018-07-27T00:44:14.774Z,1005.48
2018-07-27T00:45:14.841Z,1005.47
2018-07-27T00:46:14.852Z,1005.47
2018-07-27T00:47:14.773Z,1005.47
2018-07-27T00:48:14.864Z,1005.49
2018-07-27T00:49:14.786Z,1005.47
2018-07-27T00:50:14.785Z,1005.47
2018-07-27T00:51:14.855Z,1005.46
2018-07-27T00:52:14.755Z,1005.46
2018-07-27T00:53:14.827Z,1005.45
2018-07-27T00:54:14.818Z,1005.44
2018-07-27T00:55:14.826Z,1005.42
2018-07-27T00:56:14.756Z,1005.44
2018-07-27T00:57:14.830Z,1005.44
2018-07-27T00:58:14.764Z,1005.45
2018-07-27T00:59:14.715Z,1005.42
2018-07-27T01:00:14.831Z,1005.42
2018-07-27T01:01:14.832Z,1005.41
2018-07-27T01:02:14.845Z,1005.40
2018-07-27T01:03:14.771Z,1005.38
2018-07-27T01:04:14.859Z,1005.39
2018-07-27T01:05:14.734Z,1005.37
2018-07-27T01:06:14.797Z,1005.41
2018-07-27T01:07:14.773Z,1005.41
2018-07-27T01:08:14.793Z,1005.39
2018-07-27T01:09:14.797Z,1005.39
2018-07-27T01:10:14.862Z,1005.36
2018-07-27T01:11:14.742Z,1005.35
2018-07-27T01:12:14.815Z,1005.36
2018-07-27T01:13:14.773Z,1005.40
2018-07-27T01:14:14.808Z,1005.40
2018-07-27T01:15:14.880Z,1005.35
2018-07-27T01:16:14.744Z,1005.36
2018-07-27T01:17:14.764Z,1005.34
2018-07-27T01:18:14.814Z,1005.33
2018-07-27T01:19:14.877Z,1005.29
2018-07-27T01:20:14.802Z,1005.32
2018-07-27T01:21:14.869Z,1005.33
2018-07-27T01:22:14.746Z,1005.32
2018-07-27T01:23:14.842Z,1005.30
2018-07-27T01:24:14.846Z,1005.33
2018-07-27T01:25:14.877Z,1005.31
2018-07-27T01:26:14.862Z,1005.33
2018-07-27T01:27:14.845Z,1005.31
2018-07-27T01:28:14.887Z,1005.34
2018-07-27T01:29:14.773Z,1005.31
2018-07-27T01:30:14.823Z,1005.33
2018-07-27T01:31:14.854Z,1005.33
2018-07-27T01:32:14.886Z,1005.32
2018-07-27T01:33:14.881Z,1005.33
2018-07-27T01:34:14.883Z,1005.28
2018-07-27T01:35:14.833Z,1005.30
2018-07-27T01:36:14.756Z,1005.29
2018-07-27T01:37:14.930Z,1005.28
2018-07-27T01:38:14.853Z,1005.30
2018-07-27T01:39:14.762Z,1005.29
2018-07-27T01:40:14.894Z,1005.32
2018-07-27T01:41:14.831Z,1005.29
2018-07-27T01:42:14.803Z,1005.31
2018-07-27T01:43:14.858Z,1005.32
2018-07-27T01:44:14.793Z,1005.29
2018-07-27T01:45:14.858Z,1005.28
2018-07-27T01:46:14.791Z,1005.28
2018-07-27T01:47:14.860Z,1005.31
2018-07-27T01:48:14.796Z,1005.26
2018-07-27T01:49:14.865Z,1005.27
2018-07-27T01:50:14.796Z,1005.28
2018-07-27T01:51:14.798Z,1005.33
2018-07-27T01:52:14.794Z,1005.27
2018-07-27T01:53:14.799Z,1005.26
2018-07-27T01:54:14.872Z,1005.26
2018-07-27T01:55:14.867Z,1005.25
2018-07-27T01:56:14.802Z,1005.22
2018-07-27T01:57:14.866Z,1005.20
2018-07-27T01:58:14.834Z,1005.22
2018-07-27T01:59:14.800Z,1005.22
2018-07-27T02:00:14.803Z,1005.24
2018-07-27T02:01:14.873Z,1005.29
2018-07-27T02:02:14.867Z,1005.26
2018-07-27T02:03:14.804Z,1005.28
2018-07-27T02:04:14.807Z,1005.30
2018-07-27T02:05:14.820Z,1005.29
2018-07-27T02:06:14.805Z,1005.28
2018-07-27T02:07:14.872Z,1005.30
2018-07-27T02:08:14.806Z,1005.31
2018-07-27T02:09:14.876Z,1005.32
2018-07-27T02:10:14.812Z,1005.31
2018-07-27T02:11:14.814Z,1005.30
2018-07-27T02:12:14.814Z,1005.32
2018-07-27T02:13:14.865Z,1005.31
2018-07-27T02:14:14.831Z,1005.32
2018-07-27T02:15:14.832Z,1005.32
2018-07-27T02:16:14.872Z,1005.33
2018-07-27T02:17:14.863Z,1005.36
2018-07-27T02:18:14.839Z,1005.33
2018-07-27T02:19:14.954Z,1005.30
2018-07-27T02:20:14.753Z,1005.30
2018-07-27T02:21:14.840Z,1005.33
2018-07-27T02:22:14.870Z,1005.27
2018-07-27T02:23:14.917Z,1005.33
2018-07-27T02:24:14.905Z,1005.29
2018-07-27T02:25:14.944Z,1005.28
2018-07-27T02:26:14.929Z,1005.28
2018-07-27T02:27:14.862Z,1005.28
2018-07-27T02:28:14.794Z,1005.31
2018-07-27T02:29:14.898Z,1005.28
2018-07-27T02:30:14.831Z,1005.31
2018-07-27T02:31:14.870Z,1005.24
2018-07-27T02:32:14.871Z,1005.24
2018-07-27T02:33:14.897Z,1005.26
2018-07-27T02:34:14.897Z,1005.23
2018-07-27T02:35:14.826Z,1005.19
2018-07-27T02:36:14.900Z,1005.21
2018-07-27T02:37:14.900Z,1005.19
2018-07-27T02:38:14.897Z,1005.21
2018-07-27T02:39:14.782Z,1005.16
2018-07-27T02:40:14.900Z,1005.13
2018-07-27T02:42:14.907Z,1005.16
2018-07-27T02:43:14.836Z,1005.13
2018-07-27T02:44:14.836Z,1005.14
2018-07-27T02:45:14.901Z,1005.14
2018-07-27T02:46:14.845Z,1005.08
2018-07-27T02:47:14.822Z,1005.14
2018-07-27T02:48:14.863Z,1005.12
2018-07-27T02:49:14.871Z,1005.11
2018-07-27T02:50:14.827Z,1005.14
2018-07-27T02:51:14.932Z,1005.15
2018-07-27T02:52:14.853Z,1005.11
2018-07-27T02:53:14.898Z,1005.07
2018-07-27T02:54:14.776Z,1005.08
2018-07-27T02:55:14.839Z,1005.03
2018-07-27T02:56:14.890Z,1005.04
2018-07-27T02:57:14.802Z,1005.02
2018-07-27T02:58:14.817Z,1005.05
2018-07-27T02:59:14.841Z,1005.02
2018-07-27T03:00:14.807Z,1005.05
2018-07-27T03:01:14.894Z,1005.07
2018-07-27T03:02:14.775Z,1005.04
2018-07-27T03:03:14.784Z,1005.03
2018-07-27T03:04:14.907Z,1005.02
2018-07-27T03:05:14.906Z,1005.06
2018-07-27T03:06:14.833Z,1005.06
2018-07-27T03:07:14.837Z,1005.06
2018-07-27T03:08:14.907Z,1005.06
2018-07-27T03:09:14.838Z,1005.03
2018-07-27T03:10:14.855Z,1005.04
2018-07-27T03:11:14.790Z,1005.05
2018-07-27T03:12:14.912Z,1005.01
2018-07-27T03:13:14.939Z,1005.02
2018-07-27T03:14:14.902Z,1004.99
2018-07-27T03:15:14.883Z,1004.97
2018-07-27T03:16:14.922Z,1005.03
2018-07-27T03:17:14.956Z,1005.03
2018-07-27T03:18:14.898Z,1005.06
2018-07-27T03:19:14.961Z,1005.04
2018-07-27T03:20:14.841Z,1005.05
2018-07-27T03:21:14.847Z,1005.09
2018-07-27T03:22:14.941Z,1005.06
2018-07-27T03:23:14.832Z,1005.06
2018-07-27T03:24:14.887Z,1005.04
2018-07-27T03:25:14.927Z,1005.03
2018-07-27T03:26:14.848Z,1005.00
2018-07-27T03:27:14.929Z,1005.06
2018-07-27T03:28:14.937Z,1005.10
2018-07-27T03:29:14.952Z,1005.06
2018-07-27T03:30:14.961Z,1005.03
2018-07-27T03:31:14.932Z,1005.05
2018-07-27T03:32:14.991Z,1005.07
2018-07-27T03:33:14.965Z,1005.02
2018-07-27T03:34:14.903Z,1005.03
2018-07-27T03:35:14.935Z,1005.01
2018-07-27T03:36:14.966Z,1005.02
2018-07-27T03:37:14.897Z,1004.95
2018-07-27T03:38:14.905Z,1005.00
2018-07-27T03:39:14.896Z,1004.99
2018-07-27T03:40:14.877Z,1004.98
2018-07-27T03:41:14.893Z,1004.99
2018-07-27T03:42:14.904Z,1004.97
2018-07-27T03:43:15.019Z,1004.97
2018-07-27T03:44:14.940Z,1005.01
2018-07-27T03:45:14.960Z,1004.98
2018-07-27T03:46:14.865Z,1005.01
2018-07-27T03:47:15.018Z,1005.04
2018-07-27T03:48:14.906Z,1005.00
2018-07-27T03:49:14.957Z,1005.00
2018-07-27T03:50:14.984Z,1005.03
2018-07-27T03:51:14.961Z,1005.01
2018-07-27T03:52:14.944Z,1005.01
2018-07-27T03:53:14.937Z,1005.01
2018-07-27T03:54:14.904Z,1005.01
2018-07-27T03:55:14.850Z,1004.96
2018-07-27T03:56:14.949Z,1005.02
2018-07-27T03:57:14.833Z,1005.02
2018-07-27T03:58:14.946Z,1005.00
2018-07-27T03:59:14.936Z,1005.05
2018-07-27T04:00:14.837Z,1005.04
2018-07-27T04:01:14.936Z,1005.04
2018-07-27T04:02:14.918Z,1005.06
2018-07-27T04:03:14.893Z,1005.03
2018-07-27T04:04:14.991Z,1005.07
2018-07-27T04:05:14.980Z,1005.06
2018-07-27T04:06:14.860Z,1005.10
2018-07-27T04:07:14.946Z,1005.09
2018-07-27T04:08:15.031Z,1005.10
2018-07-27T04:09:14.991Z,1005.11
2018-07-27T04:10:14.956Z,1005.13
2018-07-27T04:11:14.866Z,1005.19
2018-07-27T04:12:14.868Z,1005.15
2018-07-27T04:13:14.865Z,1005.17
2018-07-27T04:14:14.915Z,1005.17
2018-07-27T04:15:14.868Z,1005.20
2018-07-27T04:16:14.863Z,1005.17
2018-07-27T04:17:14.918Z,1005.18
2018-07-27T04:18:14.913Z,1005.14
2018-07-27T04:19:14.959Z,1005.19
2018-07-27T04:20:14.886Z,1005.21
2018-07-27T04:21:14.835Z,1005.19
2018-07-27T04:22:14.853Z,1005.20
2018-07-27T04:23:14.966Z,1005.20
2018-07-27T04:24:14.932Z,1005.23
2018-07-27T04:25:14.887Z,1005.23
2018-07-27T04:26:15.028Z,1005.19
2018-07-27T04:27:14.971Z,1005.22
2018-07-27T04:28:14.933Z,1005.21
2018-07-27T04:29:14.934Z,1005.20
2018-07-27T04:30:14.873Z,1005.18
2018-07-27T04:31:14.894Z,1005.20
2018-07-27T04:32:15.012Z,1005.22
2018-07-27T04:33:14.946Z,1005.20
2018-07-27T04:34:14.950Z,1005.22
2018-07-27T04:35:14.939Z,1005.21
2018-07-27T04:36:15.008Z,1005.22
2018-07-27T04:37:14.975Z,1005.20
2018-07-27T04:38:14.974Z,1005.20
2018-07-27T04:39:14.956Z,1005.14
2018-07-27T04:40:14.898Z,1005.17
2018-07-27T04:41:15.116Z,1005.18
2018-07-27T04:42:14.956Z,1005.16
2018-07-27T04:43:14.981Z,1005.18
2018-07-27T04:44:14.920Z,1005.16
2018-07-27T04:45:14.917Z,1005.16
2018-07-27T04:46:14.939Z,1005.17
2018-07-27T04:47:14.931Z,1005.19
2018-07-27T04:48:14.921Z,1005.22
2018-07-27T04:49:14.928Z,1005.16
2018-07-27T04:50:14.924Z,1005.19
2018-07-27T04:51:14.919Z,1005.20
2018-07-27T04:52:14.985Z,1005.21
2018-07-27T04:53:14.985Z,1005.19
2018-07-27T04:54:14.922Z,1005.20
2018-07-27T04:55:14.986Z,1005.20
2018-07-27T04:56:14.943Z,1005.20
2018-07-27T04:57:14.921Z,1005.16
2018-07-27T04:58:14.988Z,1005.20
2018-07-27T04:59:14.957Z,1005.21
2018-07-27T05:00:14.945Z,1005.17
2018-07-27T05:01:14.991Z,1005.17
2018-07-27T05:02:14.926Z,1005.12
2018-07-27T05:03:14.903Z,1005.14
2018-07-27T05:04:15.015Z,1005.13
2018-07-27T05:05:14.966Z,1005.13
2018-07-27T05:06:15.024Z,1005.14
2018-07-27T05:07:14.996Z,1005.11
2018-07-27T05:08:15.000Z,1005.11
2018-07-27T05:09:14.960Z,1005.11
2018-07-27T05:10:14.899Z,1005.10
2018-07-27T05:11:14.997Z,1005.12
2018-07-27T05:12:14.979Z,1005.11
2018-07-27T05:13:14.898Z,1005.12
2018-07-27T05:14:15.025Z,1005.11
2018-07-27T05:15:14.961Z,1005.10
2018-07-27T05:16:15.018Z,1005.14
2018-07-27T05:17:15.032Z,1005.10
2018-07-27T05:18:14.982Z,1005.10
2018-07-27T05:19:15.037Z,1005.06
2018-07-27T05:20:14.922Z,1005.10
2018-07-27T05:21:15.005Z,1005.11
2018-07-27T05:22:15.004Z,1005.13
2018-07-27T05:23:14.979Z,1005.11
2018-07-27T05:24:15.026Z,1005.07
2018-07-27T05:25:14.978Z,1005.09
2018-07-27T05:26:14.946Z,1005.09
2018-07-27T05:27:14.912Z,1005.11
2018-07-27T05:28:15.009Z,1005.03
2018-07-27T05:29:15.032Z,1005.08
2018-07-27T05:30:15.048Z,1005.05
2018-07-27T05:31:15.046Z,1005.04
2018-07-27T05:32:15.045Z,1005.02
2018-07-27T05:33:15.023Z,1005.04
2018-07-27T05:34:15.092Z,1005.04
2018-07-27T05:35:15.030Z,1005.03
2018-07-27T05:36:14.971Z,1005.05
2018-07-27T05:37:14.956Z,1005.01
2018-07-27T05:38:14.947Z,1005.04
2018-07-27T05:39:14.951Z,1005.04
2018-07-27T05:40:15.020Z,1005.05
2018-07-27T05:41:15.015Z,1005.04
2018-07-27T05:42:14.952Z,1005.04
2018-07-27T05:43:15.014Z,1005.04
2018-07-27T05:44:15.015Z,1005.04
2018-07-27T05:45:14.956Z,1005.05
2018-07-27T05:46:15.013Z,1005.05
2018-07-27T05:47:14.968Z,1005.02
2018-07-27T05:48:14.927Z,1005.04
2018-07-27T05:49:15.018Z,1005.00
2018-07-27T05:50:15.026Z,1004.99
2018-07-27T05:51:14.979Z,1004.98
2018-07-27T05:52:15.021Z,1004.97
2018-07-27T05:53:14.894Z,1005.01
2018-07-27T05:54:14.935Z,1004.98
2018-07-27T05:55:15.016Z,1005.00
2018-07-27T05:56:14.897Z,1004.98
2018-07-27T05:57:14.958Z,1004.96
2018-07-27T05:58:14.975Z,1004.99
2018-07-27T05:59:15.025Z,1005.02
2018-07-27T06:00:15.018Z,1005.03
2018-07-27T06:01:15.027Z,1005.03
2018-07-27T06:02:15.028Z,1005.05
2018-07-27T06:03:15.020Z,1005.05
2018-07-27T06:04:15.032Z,1005.06
2018-07-27T06:05:14.903Z,1005.08
2018-07-27T06:06:14.972Z,1005.11
2018-07-27T06:07:14.939Z,1005.10
2018-07-27T06:08:15.030Z,1005.08
2018-07-27T06:09:14.989Z,1005.07
2018-07-27T06:10:15.023Z,1005.11
2018-07-27T06:11:15.088Z,1005.10
2018-07-27T06:12:15.025Z,1005.05
2018-07-27T06:13:15.013Z,1005.07
2018-07-27T06:14:15.019Z,1005.05
2018-07-27T06:15:15.018Z,1005.08
2018-07-27T06:16:15.062Z,1005.06
2018-07-27T06:17:15.005Z,1005.06
2018-07-27T06:18:15.099Z,1005.01
2018-07-27T06:19:15.002Z,1005.06
2018-07-27T06:20:15.021Z,1005.05
2018-07-27T06:21:15.008Z,1005.04
2018-07-27T06:22:15.080Z,1005.03
2018-07-27T06:23:15.008Z,1005.08
2018-07-27T06:24:15.114Z,1005.02
2018-07-27T06:25:14.987Z,1005.03
2018-07-27T06:26:15.035Z,1005.04
2018-07-27T06:27:14.989Z,1005.01
2018-07-27T06:28:15.152Z,1005.03
2018-07-27T06:29:15.041Z,1005.05
2018-07-27T06:30:15.011Z,1005.03
2018-07-27T06:31:14.950Z,1005.03
2018-07-27T06:32:15.058Z,1005.05
2018-07-27T06:33:14.996Z,1005.07
2018-07-27T06:34:15.011Z,1005.06
2018-07-27T06:35:15.074Z,1005.05
2018-07-27T06:36:15.084Z,1005.04
2018-07-27T06:37:15.084Z,1005.04
2018-07-27T06:38:15.082Z,1005.01
2018-07-27T06:39:15.028Z,1005.01
2018-07-27T06:40:14.961Z,1004.97
2018-07-27T06:41:15.080Z,1004.94
2018-07-27T06:42:15.083Z,1004.96
2018-07-27T06:43:15.101Z,1004.98
2018-07-27T06:44:14.994Z,1004.97
2018-07-27T06:45:15.031Z,1004.98
2018-07-27T06:46:15.062Z,1004.95
2018-07-27T06:47:15.063Z,1004.99
2018-07-27T06:48:14.996Z,1004.95
2018-07-27T06:50:15.107Z,1004.92
2018-07-27T06:51:15.066Z,1004.95
2018-07-27T06:52:14.999Z,1004.90
2018-07-27T06:53:15.096Z,1004.92
2018-07-27T06:54:15.035Z,1004.86
2018-07-27T06:55:15.031Z,1004.88
2018-07-27T06:56:15.106Z,1004.86
2018-07-27T06:57:15.032Z,1004.83
2018-07-27T06:58:14.992Z,1004.83
2018-07-27T06:59:14.977Z,1004.81
2018-07-27T07:00:15.105Z,1004.82
2018-07-27T07:01:14.984Z,1004.84
2018-07-27T07:02:15.098Z,1004.82
2018-07-27T07:03:15.055Z,1004.83
2018-07-27T07:04:15.113Z,1004.84
2018-07-27T07:05:15.119Z,1004.81
2018-07-27T07:06:15.035Z,1004.84
2018-07-27T07:07:15.075Z,1004.84
2018-07-27T07:08:15.139Z,1004.81
2018-07-27T07:09:15.055Z,1004.81
2018-07-27T07:10:15.079Z,1004.82
2018-07-27T07:11:15.084Z,1004.81
2018-07-27T07:12:14.986Z,1004.73
2018-07-27T07:13:14.986Z,1004.77
2018-07-27T07:14:15.062Z,1004.77
2018-07-27T07:15:15.088Z,1004.79
2018-07-27T07:16:15.113Z,1004.78
2018-07-27T07:17:15.083Z,1004.76
2018-07-27T07:18:15.085Z,1004.73
2018-07-27T07:19:15.025Z,1004.74
2018-07-27T07:20:15.087Z,1004.75
2018-07-27T07:21:15.114Z,1004.76
2018-07-27T07:22:15.092Z,1004.80
2018-07-27T07:23:15.017Z,1004.78
2018-07-27T07:24:15.025Z,1004.77
2018-07-27T07:25:15.127Z,1004.77
2018-07-27T07:26:15.149Z,1004.77
2018-07-27T07:27:15.081Z,1004.74
2018-07-27T07:28:14.967Z,1004.74
2018-07-27T07:29:15.088Z,1004.72
2018-07-27T07:30:15.084Z,1004.70
2018-07-27T07:31:15.091Z,1004.72
2018-07-27T07:32:14.978Z,1004.76
2018-07-27T07:33:15.148Z,1004.73
2018-07-27T07:34:14.998Z,1004.75
2018-07-27T07:35:15.124Z,1004.73
2018-07-27T07:36:15.052Z,1004.71
2018-07-27T07:37:15.018Z,1004.67
2018-07-27T07:38:15.133Z,1004.66
2018-07-27T07:39:15.140Z,1004.66
2018-07-27T07:40:15.126Z,1004.62
2018-07-27T07:41:15.103Z,1004.62
2018-07-27T07:42:15.103Z,1004.65
2018-07-27T07:43:15.062Z,1004.60
2018-07-27T07:44:15.067Z,1004.61
2018-07-27T07:45:15.027Z,1004.60
2018-07-27T07:46:15.028Z,1004.60
2018-07-27T07:47:15.133Z,1004.60
2018-07-27T07:48:15.087Z,1004.59
2018-07-27T07:49:15.115Z,1004.58
2018-07-27T07:50:15.124Z,1004.58
2018-07-27T07:51:15.085Z,1004.53
2018-07-27T07:52:15.152Z,1004.47
2018-07-27T07:53:15.045Z,1004.48
2018-07-27T07:54:15.122Z,1004.47
2018-07-27T07:55:15.114Z,1004.47
2018-07-27T07:56:15.046Z,1004.48
2018-07-27T07:57:15.152Z,1004.47
2018-07-27T07:58:14.998Z,1004.49
2018-07-27T07:59:15.122Z,1004.45
2018-07-27T08:00:15.053Z,1004.43
2018-07-27T08:01:15.143Z,1004.43
2018-07-27T08:02:15.052Z,1004.43
2018-07-27T08:03:15.058Z,1004.42
2018-07-27T08:04:15.170Z,1004.38
2018-07-27T08:05:15.090Z,1004.42
2018-07-27T08:06:15.076Z,1004.39
2018-07-27T08:07:15.044Z,1004.37
2018-07-27T08:08:15.041Z,1004.37
2018-07-27T08:09:15.121Z,1004.38
2018-07-27T08:10:15.098Z,1004.34
2018-07-27T08:11:15.156Z,1004.33
2018-07-27T08:12:15.158Z,1004.35
2018-07-27T08:13:15.065Z,1004.33
2018-07-27T08:14:15.074Z,1004.32
2018-07-27T08:15:15.126Z,1004.30
2018-07-27T08:16:15.063Z,1004.29
2018-07-27T08:17:15.091Z,1004.27
2018-07-27T08:18:15.062Z,1004.26
2018-07-27T08:19:15.062Z,1004.24
2018-07-27T08:20:15.128Z,1004.24
2018-07-27T08:21:15.070Z,1004.22
2018-07-27T08:22:15.131Z,1004.17
2018-07-27T08:23:15.057Z,1004.21
2018-07-27T08:24:15.145Z,1004.21
2018-07-27T08:25:15.163Z,1004.20
2018-07-27T08:26:15.137Z,1004.16
2018-07-27T08:27:15.193Z,1004.19
2018-07-27T08:28:15.141Z,1004.19
2018-07-27T08:29:15.069Z,1004.16
2018-07-27T08:30:15.072Z,1004.19
2018-07-27T08:31:15.134Z,1004.18
2018-07-27T08:32:15.137Z,1004.14
2018-07-27T08:33:15.144Z,1004.20
2018-07-27T08:34:15.141Z,1004.11
2018-07-27T08:35:15.076Z,1004.10
2018-07-27T08:36:15.076Z,1004.07
2018-07-27T08:37:15.083Z,1004.08
2018-07-27T08:38:15.094Z,1004.09
2018-07-27T08:39:15.076Z,1004.03
2018-07-27T08:40:15.083Z,1004.07
2018-07-27T08:41:15.143Z,1004.09
2018-07-27T08:42:15.082Z,1004.10
2018-07-27T08:43:15.144Z,1004.07
2018-07-27T08:44:15.153Z,1004.04
2018-07-27T08:45:15.104Z,1004.05
2018-07-27T08:46:15.185Z,1004.05
2018-07-27T08:47:15.147Z,1004.02
2018-07-27T08:48:15.116Z,1004.04
2018-07-27T08:49:15.130Z,1004.01
2018-07-27T08:50:15.177Z,1003.97
2018-07-27T08:51:15.295Z,1004.00
2018-07-27T08:52:15.114Z,1003.97
2018-07-27T08:53:15.120Z,1003.96
2018-07-27T08:54:15.192Z,1003.93
2018-07-27T08:55:15.174Z,1003.91
2018-07-27T08:56:15.064Z,1003.92
2018-07-27T08:57:15.127Z,1003.91
2018-07-27T08:58:15.117Z,1003.87
2018-07-27T08:59:15.157Z,1003.87
2018-07-27T09:00:15.120Z,1003.91
2018-07-27T09:01:15.178Z,1003.94
2018-07-27T09:02:15.134Z,1003.95
2018-07-27T09:03:15.123Z,1003.91
2018-07-27T09:04:15.111Z,1003.88
2018-07-27T09:05:15.098Z,1003.89
2018-07-27T09:06:15.042Z,1003.93
2018-07-27T09:07:15.119Z,1003.94
2018-07-27T09:08:15.151Z,1003.87
2018-07-27T09:09:15.070Z,1003.86
2018-07-27T09:10:15.197Z,1003.85
2018-07-27T09:11:15.149Z,1003.86
2018-07-27T09:12:15.159Z,1003.90
2018-07-27T09:13:15.120Z,1003.92
2018-07-27T09:14:15.140Z,1003.87
2018-07-27T09:15:15.131Z,1003.90
2018-07-27T09:16:15.144Z,1003.91
2018-07-27T09:17:15.227Z,1003.88
2018-07-27T09:18:15.167Z,1003.91
2018-07-27T09:19:15.209Z,1003.91
2018-07-27T09:20:15.138Z,1003.91
2018-07-27T09:21:15.138Z,1003.88
2018-07-27T09:22:15.168Z,1003.84
2018-07-27T09:23:15.096Z,1003.79
2018-07-27T09:24:15.313Z,1003.85
2018-07-27T09:25:15.654Z,1003.82
2018-07-27T09:26:15.153Z,1003.83
2018-07-27T09:27:15.083Z,1003.84
2018-07-27T09:28:15.133Z,1003.85
2018-07-27T09:29:15.155Z,1003.87
2018-07-27T09:30:15.195Z,1003.80
2018-07-27T09:31:15.134Z,1003.83
2018-07-27T09:32:15.203Z,1003.83
2018-07-27T09:33:15.202Z,1003.79
2018-07-27T09:34:15.225Z,1003.73
2018-07-27T09:35:15.282Z,1003.74
2018-07-27T09:36:15.213Z,1003.73
2018-07-27T09:37:15.092Z,1003.74
2018-07-27T09:38:15.216Z,1003.69
2018-07-27T09:39:15.227Z,1003.69
2018-07-27T09:40:15.093Z,1003.70
2018-07-27T09:41:15.205Z,1003.69
2018-07-27T09:42:15.144Z,1003.69
2018-07-27T09:43:15.169Z,1003.64
2018-07-27T09:44:15.190Z,1003.61
2018-07-27T09:45:15.189Z,1003.59
2018-07-27T09:46:15.121Z,1003.61
2018-07-27T09:47:15.119Z,1003.64
2018-07-27T09:48:15.126Z,1003.64
2018-07-27T09:49:15.127Z,1003.60
2018-07-27T09:50:15.211Z,1003.58
2018-07-27T09:51:15.192Z,1003.58
2018-07-27T09:52:15.155Z,1003.60
2018-07-27T09:53:15.128Z,1003.55
2018-07-27T09:54:15.128Z,1003.58
2018-07-27T09:55:15.124Z,1003.56
2018-07-27T09:56:15.070Z,1003.56
2018-07-27T09:57:15.180Z,1003.58
2018-07-27T09:58:15.125Z,1003.54
2018-07-27T09:59:15.149Z,1003.52
2018-07-27T10:00:15.089Z,1003.56
2018-07-27T10:01:15.150Z,1003.54
2018-07-27T10:02:15.156Z,1003.59
2018-07-27T10:03:15.134Z,1003.56
2018-07-27T10:04:15.201Z,1003.52
2018-07-27T10:05:15.139Z,1003.50
2018-07-27T10:06:15.168Z,1003.44
2018-07-27T10:07:15.146Z,1003.44
2018-07-27T10:08:15.239Z,1003.29
2018-07-27T10:09:15.207Z,1003.41
2018-07-27T10:10:15.209Z,1003.42
2018-07-27T10:11:15.232Z,1003.42
2018-07-27T10:12:15.230Z,1003.43
2018-07-27T10:13:15.141Z,1003.41
2018-07-27T10:14:15.123Z,1003.48
2018-07-27T10:15:15.177Z,1003.38
2018-07-27T10:16:15.209Z,1003.36
2018-07-27T10:17:15.248Z,1003.33
2018-07-27T10:18:15.182Z,1003.33
2018-07-27T10:19:15.130Z,1003.33
2018-07-27T10:20:15.181Z,1003.36
2018-07-27T10:21:15.211Z,1003.41
2018-07-27T10:22:15.235Z,1003.33
2018-07-27T10:23:15.117Z,1003.36
2018-07-27T10:24:15.242Z,1003.34
2018-07-27T10:25:15.248Z,1003.33
2018-07-27T10:26:15.144Z,1003.33
2018-07-27T10:27:15.223Z,1003.32
2018-07-27T10:28:15.253Z,1003.31
2018-07-27T10:29:15.186Z,1003.35
2018-07-27T10:30:15.249Z,1003.31
2018-07-27T10:31:15.177Z,1003.31
2018-07-27T10:32:15.145Z,1003.34
2018-07-27T10:33:15.179Z,1003.32
2018-07-27T10:34:15.117Z,1003.32
2018-07-27T10:35:15.209Z,1003.29
2018-07-27T10:36:15.204Z,1003.28
2018-07-27T10:37:15.157Z,1003.24
2018-07-27T10:38:15.094Z,1003.27
2018-07-27T10:39:15.093Z,1003.21
2018-07-27T10:40:15.083Z,1003.18
2018-07-27T10:41:15.162Z,1003.18
2018-07-27T10:42:15.209Z,1003.17
2018-07-27T10:43:15.166Z,1003.14
2018-07-27T10:44:15.187Z,1003.13
2018-07-27T10:45:15.201Z,1003.11
2018-07-27T10:46:15.206Z,1003.07
2018-07-27T10:47:15.170Z,1003.10
2018-07-27T10:48:15.233Z,1003.10
2018-07-27T10:49:15.153Z,1003.09
2018-07-27T10:50:15.250Z,1003.11
2018-07-27T10:51:15.261Z,1003.06
2018-07-27T10:52:15.237Z,1003.11
2018-07-27T10:53:15.176Z,1003.07
2018-07-27T10:54:15.235Z,1003.12
2018-07-27T10:55:15.171Z,1003.11
2018-07-27T10:56:15.188Z,1003.04
2018-07-27T10:57:15.173Z,1003.10
2018-07-27T10:58:15.237Z,1003.05
2018-07-27T10:59:15.263Z,1003.04
2018-07-27T11:00:15.305Z,1003.04
2018-07-27T11:01:15.241Z,1003.02
2018-07-27T11:02:15.242Z,1003.05
2018-07-27T11:03:15.245Z,1003.00
2018-07-27T11:04:15.194Z,1003.00
2018-07-27T11:05:15.268Z,1002.98
2018-07-27T11:06:15.184Z,1002.92
2018-07-27T11:07:15.146Z,1002.91
2018-07-27T11:08:15.272Z,1002.87
2018-07-27T11:09:15.282Z,1002.91
2018-07-27T11:10:15.279Z,1002.86
2018-07-27T11:11:15.219Z,1002.81
2018-07-27T11:12:15.285Z,1002.84
2018-07-27T11:13:15.292Z,1002.82
2018-07-27T11:14:15.182Z,1002.82
2018-07-27T11:15:15.175Z,1002.82
2018-07-27T11:16:15.287Z,1002.82
2018-07-27T11:17:15.225Z,1002.81
2018-07-27T11:18:15.196Z,1002.82
2018-07-27T11:19:15.172Z,1002.81
2018-07-27T11:20:15.160Z,1002.70
2018-07-27T11:21:15.244Z,1002.71
2018-07-27T11:22:15.132Z,1002.65
2018-07-27T11:23:15.214Z,1002.67
2018-07-27T11:24:15.221Z,1002.74
2018-07-27T11:25:15.230Z,1002.75
2018-07-27T11:26:15.222Z,1002.76
2018-07-27T11:27:15.179Z,1002.77
2018-07-27T11:28:15.285Z,1002.76
2018-07-27T11:29:15.221Z,1002.77
2018-07-27T11:30:15.282Z,1002.71
2018-07-27T11:31:15.291Z,1002.68
2018-07-27T11:32:15.218Z,1002.66
2018-07-27T11:33:15.277Z,1002.67
2018-07-27T11:34:15.195Z,1002.58
2018-07-27T11:35:15.262Z,1002.56
2018-07-27T11:36:15.255Z,1002.57
2018-07-27T11:37:15.267Z,1002.56
2018-07-27T11:38:15.139Z,1002.51
2018-07-27T11:39:15.190Z,1002.49
2018-07-27T11:40:15.219Z,1002.48
2018-07-27T11:41:15.175Z,1002.47
2018-07-27T11:42:15.271Z,1002.49
2018-07-27T11:43:15.258Z,1002.43
2018-07-27T11:44:15.238Z,1002.47
2018-07-27T11:45:15.242Z,1002.49
2018-07-27T11:46:15.209Z,1002.49
2018-07-27T11:47:15.306Z,1002.43
2018-07-27T11:48:15.207Z,1002.41
2018-07-27T11:49:15.247Z,1002.44
2018-07-27T11:50:15.316Z,1002.41
2018-07-27T11:51:15.213Z,1002.37
2018-07-27T11:52:15.294Z,1002.41
2018-07-27T11:53:15.317Z,1002.39
2018-07-27T11:54:15.276Z,1002.37
2018-07-27T11:55:15.207Z,1002.36
2018-07-27T11:56:15.207Z,1002.38
2018-07-27T11:57:15.279Z,1002.41
2018-07-27T11:58:15.217Z,1002.39
2018-07-27T11:59:15.282Z,1002.31
2018-07-27T12:00:15.347Z,1002.29
2018-07-27T12:01:15.216Z,1002.28
2018-07-27T12:02:15.223Z,1002.28
2018-07-27T12:03:15.281Z,1002.30
2018-07-27T12:04:15.185Z,1002.26
2018-07-27T12:05:15.284Z,1002.17
2018-07-27T12:06:15.230Z,1002.18
2018-07-27T12:07:15.194Z,1002.15